Time,TemperatureF,DewpointF,PressureIn,WindDirection,WindDirectionDegrees,WindSpeedMPH,WindSpeedGustMPH,Humidity,HourlyPrecipIn,Conditions,Clouds,dailyrainin,SolarRadiationWatts/m^2,SoftwareType,DateUTC
2013-03-27 00:03:00,36.0,23.0,29.31,WNW,294,1.0,4.0,59,0.00,,,0.00,0.000000,,2013-03-27 04:03:00,
2013-03-27 00:10:00,35.0,23.0,29.32,NW,315,2.0,7.0,60,0.00,,,0.00,0.000000,,2013-03-27 04:10:00,
2013-03-27 00:33:00,35.0,23.0,29.32,NW,315,2.0,7.0,60,0.00,,,0.00,0.000000,,2013-03-27 04:33:00,
2013-03-27 00:43:00,35.0,23.0,29.32,NW,315,2.0,7.0,60,0.00,,,0.00,0.000000,,2013-03-27 04:43:00,
2013-03-27 00:53:00,35.0,23.0,29.32,NW,315,2.0,7.0,60,0.00,,,0.00,0.000000,,2013-03-27 04:53:00,
2013-03-27 01:03:00,35.0,23.0,29.32,NW,315,2.0,7.0,60,0.00,,,0.00,0.000000,,2013-03-27 05:03:00,
2013-03-27 01:10:00,32.0,22.0,29.33,NNW,327,1.0,5.0,66,0.00,,,0.00,0.000000,,2013-03-27 05:10:00,
2013-03-27 01:42:00,32.0,22.0,29.33,NNW,327,1.0,5.0,66,0.00,,,0.00,0.000000,,2013-03-27 05:42:00,
2013-03-27 01:53:00,32.0,22.0,29.33,NNW,327,1.0,5.0,66,0.00,,,0.00,0.000000,,2013-03-27 05:53:00,
2013-03-27 02:02:00,32.0,22.0,29.33,NNW,327,1.0,5.0,66,0.00,,,0.00,0.000000,,2013-03-27 06:02:00,
2013-03-27 02:10:00,30.0,22.0,29.33,NNW,332,1.0,5.0,73,0.00,,,0.00,0.000000,,2013-03-27 06:10:00,
2013-03-27 02:32:00,30.0,22.0,29.33,NNW,332,1.0,5.0,73,0.00,,,0.00,0.000000,,2013-03-27 06:32:00,
2013-03-27 02:42:00,30.0,22.0,29.33,NNW,332,1.0,5.0,73,0.00,,,0.00,0.000000,,2013-03-27 06:42:00,
2013-03-27 02:53:00,30.0,22.0,29.33,NNW,332,1.0,5.0,73,0.00,,,0.00,0.000000,,2013-03-27 06:53:00,
2013-03-27 03:02:00,30.0,22.0,29.33,NNW,332,1.0,5.0,73,0.00,,,0.00,0.000000,,2013-03-27 07:02:00,
2013-03-27 03:10:00,28.0,23.0,29.32,NW,322,1.0,3.0,81,0.00,,,0.00,0.000000,,2013-03-27 07:10:00,
2013-03-27 03:32:00,28.0,23.0,29.32,NW,322,1.0,3.0,81,0.00,,,0.00,0.000000,,2013-03-27 07:32:00,
2013-03-27 03:43:00,28.0,23.0,29.32,NW,322,1.0,3.0,81,0.00,,,0.00,0.000000,,2013-03-27 07:43:00,
2013-03-27 03:54:00,28.0,23.0,29.32,NW,322,1.0,3.0,81,0.00,,,0.00,0.000000,,2013-03-27 07:54:00,
2013-03-27 04:02:00,28.0,23.0,29.32,NW,322,1.0,3.0,81,0.00,,,0.00,0.000000,,2013-03-27 08:02:00,
2013-03-27 04:10:00,27.0,23.0,29.33,North,349,2.0,5.0,86,0.00,,,0.00,0.000000,,2013-03-27 08:10:00,
2013-03-27 04:32:00,27.0,23.0,29.33,North,349,2.0,5.0,86,0.00,,,0.00,0.000000,,2013-03-27 08:32:00,
2013-03-27 04:43:00,27.0,23.0,29.33,North,349,2.0,5.0,86,0.00,,,0.00,0.000000,,2013-03-27 08:43:00,
2013-03-27 04:52:00,27.0,23.0,29.33,North,349,2.0,5.0,86,0.00,,,0.00,0.000000,,2013-03-27 08:52:00,
2013-03-27 05:02:00,27.0,23.0,29.33,North,349,2.0,5.0,86,0.00,,,0.00,0.000000,,2013-03-27 09:02:00,
2013-03-27 05:10:00,25.0,22.0,29.33,NW,319,1.0,4.0,88,0.00,,,0.00,0.000000,,2013-03-27 09:10:00,
2013-03-27 05:42:00,25.0,22.0,29.33,NW,319,1.0,4.0,88,0.00,,,0.00,0.000000,,2013-03-27 09:42:00,
2013-03-27 05:52:00,25.0,22.0,29.33,NW,319,1.0,4.0,88,0.00,,,0.00,0.000000,,2013-03-27 09:52:00,
2013-03-27 06:03:00,25.0,22.0,29.33,NW,319,1.0,4.0,88,0.00,,,0.00,0.000000,,2013-03-27 10:03:00,
2013-03-27 06:10:00,24.0,21.0,29.34,West,265,2.0,6.0,88,0.00,,,0.00,0.000000,,2013-03-27 10:10:00,
2013-03-27 06:32:00,24.0,21.0,29.34,West,265,2.0,6.0,88,0.00,,,0.00,0.000000,,2013-03-27 10:32:00,
2013-03-27 06:42:00,24.0,21.0,29.34,West,265,2.0,6.0,88,0.00,,,0.00,0.000000,,2013-03-27 10:42:00,
2013-03-27 06:53:00,24.0,21.0,29.34,West,265,2.0,6.0,88,0.00,,,0.00,0.000000,,2013-03-27 10:53:00,
2013-03-27 07:03:00,24.0,21.0,29.34,West,265,2.0,6.0,88,0.00,,,0.00,0.000000,,2013-03-27 11:03:00,
2013-03-27 07:10:00,23.0,21.0,29.36,WNW,300,1.0,8.0,90,0.00,,,0.00,0.000000,,2013-03-27 11:10:00,
2013-03-27 07:32:00,23.0,21.0,29.36,WNW,300,1.0,8.0,90,0.00,,,0.00,0.000000,,2013-03-27 11:32:00,
2013-03-27 07:42:00,23.0,21.0,29.36,WNW,300,1.0,8.0,90,0.00,,,0.00,0.000000,,2013-03-27 11:42:00,
2013-03-27 07:53:00,23.0,21.0,29.36,WNW,300,1.0,8.0,90,0.00,,,0.00,0.000000,,2013-03-27 11:53:00,
2013-03-27 08:02:00,23.0,21.0,29.36,WNW,300,1.0,8.0,90,0.00,,,0.00,0.000000,,2013-03-27 12:02:00,
2013-03-27 08:10:00,24.0,21.0,29.38,West,272,1.0,8.0,89,0.00,,,0.00,0.000000,,2013-03-27 12:10:00,
2013-03-27 08:32:00,24.0,21.0,29.38,West,272,1.0,8.0,89,0.00,,,0.00,0.000000,,2013-03-27 12:32:00,
2013-03-27 08:43:00,24.0,21.0,29.38,West,272,1.0,8.0,89,0.00,,,0.00,0.000000,,2013-03-27 12:43:00,
2013-03-27 08:52:00,24.0,21.0,29.38,West,272,1.0,8.0,89,0.00,,,0.00,0.000000,,2013-03-27 12:52:00,
2013-03-27 09:02:00,24.0,21.0,29.38,West,272,1.0,8.0,89,0.00,,,0.00,0.000000,,2013-03-27 13:02:00,
2013-03-27 09:10:00,39.0,25.0,29.38,NW,325,1.0,3.0,57,0.00,,,0.00,10.000000,,2013-03-27 13:10:00,
2013-03-27 09:42:00,39.0,25.0,29.38,NW,325,1.0,3.0,57,0.00,,,0.00,10.000000,,2013-03-27 13:42:00,
2013-03-27 09:53:00,39.0,25.0,29.38,NW,325,1.0,3.0,57,0.00,,,0.00,10.000000,,2013-03-27 13:53:00,
2013-03-27 10:02:00,39.0,25.0,29.38,NW,325,1.0,3.0,57,0.00,,,0.00,10.000000,,2013-03-27 14:02:00,
2013-03-27 10:10:00,46.0,19.0,29.38,North,352,3.0,10.0,34,0.00,,,0.00,184.000000,,2013-03-27 14:10:00,
2013-03-27 10:42:00,46.0,19.0,29.38,North,352,3.0,10.0,34,0.00,,,0.00,184.000000,,2013-03-27 14:42:00,
2013-03-27 10:52:00,46.0,19.0,29.38,North,352,3.0,10.0,34,0.00,,,0.00,184.000000,,2013-03-27 14:52:00,
2013-03-27 11:03:00,46.0,19.0,29.38,North,352,3.0,10.0,34,0.00,,,0.00,184.000000,,2013-03-27 15:03:00,
2013-03-27 11:10:00,50.0,20.0,29.37,ESE,120,2.0,9.0,30,0.00,,,0.00,498.000000,,2013-03-27 15:10:00,
2013-03-27 11:33:00,50.0,20.0,29.37,ESE,120,2.0,9.0,30,0.00,,,0.00,498.000000,,2013-03-27 15:33:00,
2013-03-27 11:43:00,50.0,20.0,29.37,ESE,120,2.0,9.0,30,0.00,,,0.00,498.000000,,2013-03-27 15:43:00,
2013-03-27 11:53:00,50.0,20.0,29.37,ESE,120,2.0,9.0,30,0.00,,,0.00,498.000000,,2013-03-27 15:53:00,
2013-03-27 12:03:00,50.0,20.0,29.37,ESE,120,2.0,9.0,30,0.00,,,0.00,498.000000,,2013-03-27 16:03:00,
2013-03-27 14:10:00,54.0,19.0,29.34,NNE,21,5.0,13.0,25,-99.99,,,-99.99,1058.000000,,2013-03-27 18:10:00,
2013-03-27 14:33:00,54.0,19.0,29.34,NNE,21,5.0,13.0,25,-99.99,,,-99.99,1058.000000,,2013-03-27 18:33:00,
2013-03-27 14:42:00,54.0,19.0,29.34,NNE,21,5.0,13.0,25,-99.99,,,-99.99,1058.000000,,2013-03-27 18:42:00,
2013-03-27 14:53:00,54.0,19.0,29.34,NNE,21,5.0,13.0,25,-99.99,,,-99.99,1058.000000,,2013-03-27 18:53:00,
2013-03-27 15:03:00,54.0,19.0,29.34,NNE,21,5.0,13.0,25,-99.99,,,-99.99,1058.000000,,2013-03-27 19:03:00,
2013-03-27 15:10:00,55.0,23.0,29.31,NE,37,8.0,16.0,28,0.00,,,0.00,1093.000000,,2013-03-27 19:10:00,
2013-03-27 15:42:00,55.0,23.0,29.31,NE,37,8.0,16.0,28,0.00,,,0.00,1093.000000,,2013-03-27 19:42:00,
2013-03-27 15:52:00,55.0,23.0,29.31,NE,37,8.0,16.0,28,0.00,,,0.00,1093.000000,,2013-03-27 19:52:00,
2013-03-27 16:03:00,55.0,23.0,29.31,NE,37,8.0,16.0,28,0.00,,,0.00,1093.000000,,2013-03-27 20:03:00,
2013-03-27 16:10:00,56.0,23.0,29.31,NE,40,7.0,22.0,27,0.00,,,0.00,1053.000000,,2013-03-27 20:10:00,
2013-03-27 16:43:00,56.0,23.0,29.31,NE,40,7.0,22.0,27,0.00,,,0.00,1053.000000,,2013-03-27 20:43:00,
2013-03-27 16:52:00,56.0,23.0,29.31,NE,40,7.0,22.0,27,0.00,,,0.00,1053.000000,,2013-03-27 20:52:00,
2013-03-27 17:02:00,56.0,23.0,29.31,NE,40,7.0,22.0,27,0.00,,,0.00,1053.000000,,2013-03-27 21:02:00,
2013-03-27 17:10:00,57.0,22.0,29.30,ENE,63,7.0,18.0,25,0.00,,,0.00,842.000000,,2013-03-27 21:10:00,
2013-03-27 17:33:00,57.0,22.0,29.30,ENE,63,7.0,18.0,25,0.00,,,0.00,842.000000,,2013-03-27 21:33:00,
2013-03-27 17:44:00,57.0,22.0,29.30,ENE,63,7.0,18.0,25,0.00,,,0.00,842.000000,,2013-03-27 21:44:00,
2013-03-27 17:52:00,57.0,22.0,29.30,ENE,63,7.0,18.0,25,0.00,,,0.00,842.000000,,2013-03-27 21:52:00,
2013-03-27 18:03:00,57.0,22.0,29.30,ENE,63,7.0,18.0,25,0.00,,,0.00,842.000000,,2013-03-27 22:03:00,
2013-03-27 18:10:00,51.0,21.0,29.30,NNE,28,6.0,14.0,30,0.00,,,0.00,748.000000,,2013-03-27 22:10:00,
2013-03-27 18:42:00,51.0,21.0,29.30,NNE,28,6.0,14.0,30,0.00,,,0.00,748.000000,,2013-03-27 22:42:00,
2013-03-27 18:53:00,51.0,21.0,29.30,NNE,28,6.0,14.0,30,0.00,,,0.00,748.000000,,2013-03-27 22:53:00,
2013-03-27 19:03:00,51.0,21.0,29.30,NNE,28,6.0,14.0,30,0.00,,,0.00,748.000000,,2013-03-27 23:03:00,
2013-03-27 19:10:00,48.0,21.0,29.32,North,3,7.0,13.0,34,0.00,,,0.00,382.000000,,2013-03-27 23:10:00,
2013-03-27 19:43:00,48.0,21.0,29.32,North,3,7.0,13.0,34,0.00,,,0.00,382.000000,,2013-03-27 23:43:00,
2013-03-27 19:52:00,48.0,21.0,29.32,North,3,7.0,13.0,34,0.00,,,0.00,382.000000,,2013-03-27 23:52:00,
2013-03-27 20:02:00,48.0,21.0,29.32,North,3,7.0,13.0,34,0.00,,,0.00,382.000000,,2013-03-28 00:02:00,